createdAt,value
2023-03-06T00:01:29.896Z,16.50
2023-03-06T00:06:33.952Z,21.30
2023-03-06T00:11:37.636Z,25.00
2023-03-06T00:16:41.192Z,21.60
2023-03-06T00:21:44.328Z,21.70
2023-03-06T00:26:48.743Z,23.40
2023-03-06T00:31:52.416Z,18.60
2023-03-06T00:36:55.436Z,16.80
2023-03-06T00:41:58.042Z,16.80
2023-03-06T00:47:01.607Z,19.90
2023-03-06T00:52:05.225Z,18.30
2023-03-06T00:57:08.019Z,20.00
2023-03-06T01:02:11.133Z,24.10
2023-03-06T01:07:15.659Z,18.20
2023-03-06T01:12:18.929Z,19.00
2023-03-06T01:17:21.727Z,14.50
2023-03-06T01:22:25.476Z,17.40
2023-03-06T01:27:28.864Z,16.00
2023-03-06T01:32:33.240Z,16.90
2023-03-06T01:37:37.532Z,16.10
2023-03-06T01:42:41.737Z,16.90
2023-03-06T01:47:45.212Z,18.60
2023-03-06T01:52:57.688Z,16.60
2023-03-06T01:58:06.260Z,15.90
2023-03-06T02:03:10.767Z,16.10
2023-03-06T02:08:18.410Z,13.70
2023-03-06T02:13:21.513Z,12.70
2023-03-06T02:18:25.657Z,13.00
2023-03-06T02:23:39.144Z,13.80
2023-03-06T02:28:41.573Z,12.70
2023-03-06T02:33:43.891Z,12.90
2023-03-06T02:38:49.995Z,13.70
2023-03-06T02:43:53.303Z,12.60
2023-03-06T02:48:57.738Z,9.90
2023-03-06T02:54:00.135Z,8.40
2023-03-06T02:59:02.561Z,11.10
2023-03-06T03:04:05.891Z,12.80
2023-03-06T03:09:10.123Z,12.90
2023-03-06T03:14:12.934Z,8.80
2023-03-06T03:19:15.731Z,11.10
2023-03-06T03:24:19.281Z,11.50
2023-03-06T03:29:21.628Z,13.00
2023-03-06T03:34:23.743Z,11.30
2023-03-06T03:39:25.785Z,10.30
2023-03-06T03:44:27.602Z,10.70
2023-03-06T03:49:29.375Z,11.40
2023-03-06T03:54:31.124Z,13.20
2023-03-06T03:59:36.311Z,12.80
2023-03-06T04:04:39.771Z,14.70
2023-03-06T04:09:43.394Z,13.80
2023-03-06T04:14:46.567Z,6.00
2023-03-06T04:19:50.020Z,8.60
2023-03-06T04:24:53.196Z,9.30
2023-03-06T04:29:56.566Z,9.90
2023-03-06T04:35:00.539Z,11.80
2023-03-06T04:40:04.550Z,10.40
2023-03-06T04:45:08.492Z,13.10
2023-03-06T04:50:11.943Z,15.40
2023-03-06T04:55:17.705Z,17.70
2023-03-06T05:00:23.853Z,15.80
2023-03-06T05:05:28.246Z,12.60
2023-03-06T05:10:30.970Z,10.60
2023-03-06T05:15:33.641Z,16.40
2023-03-06T05:20:37.364Z,15.60
2023-03-06T05:25:41.136Z,13.80
2023-03-06T05:30:45.027Z,15.40
2023-03-06T05:35:49.073Z,14.90
2023-03-06T05:40:51.519Z,17.20
2023-03-06T05:46:05.503Z,18.20
2023-03-06T05:51:07.681Z,17.70
2023-03-06T05:56:10.377Z,17.60
2023-03-06T06:01:17.164Z,19.60
2023-03-06T06:06:20.441Z,17.80
2023-03-06T06:11:24.559Z,14.90
2023-03-06T06:16:27.876Z,14.00
2023-03-06T06:21:31.655Z,19.60
2023-03-06T06:26:35.826Z,19.90
2023-03-06T06:31:39.679Z,22.90
2023-03-06T06:36:43.257Z,24.20
2023-03-06T06:41:59.778Z,16.20
2023-03-06T06:47:26.102Z,21.10
2023-03-06T06:52:29.847Z,22.20
2023-03-06T06:57:33.852Z,20.00
2023-03-06T07:02:36.794Z,20.10
2023-03-06T07:07:41.307Z,22.60
2023-03-06T07:12:44.704Z,20.70
2023-03-06T07:17:50.189Z,25.00
2023-03-06T07:22:54.681Z,27.40
2023-03-06T07:27:58.534Z,26.80
2023-03-06T07:33:01.922Z,22.60
2023-03-06T07:38:04.602Z,22.10
2023-03-06T07:43:18.754Z,20.40
2023-03-06T07:48:23.558Z,15.50
2023-03-06T07:53:27.825Z,16.90
2023-03-06T07:58:32.821Z,13.20
2023-03-06T08:03:37.077Z,15.60
2023-03-06T08:08:41.724Z,12.90
2023-03-06T08:13:45.892Z,13.60
2023-03-06T08:18:49.587Z,16.40
2023-03-06T08:23:53.035Z,17.70
2023-03-06T08:28:59.798Z,13.30
2023-03-06T08:34:05.549Z,13.40
2023-03-06T08:39:09.120Z,11.10
2023-03-06T08:44:13.360Z,13.10
2023-03-06T08:49:16.651Z,14.60
2023-03-06T08:54:20.378Z,11.00
2023-03-06T08:59:24.784Z,8.80
2023-03-06T09:04:31.206Z,10.10
2023-03-06T09:09:33.391Z,9.30
2023-03-06T09:14:36.156Z,10.30
2023-03-06T09:19:39.458Z,9.70
2023-03-06T09:24:42.612Z,10.10
2023-03-06T09:29:45.871Z,12.00
2023-03-06T09:34:49.273Z,10.90
2023-03-06T09:39:51.805Z,10.60
2023-03-06T09:44:59.501Z,9.40
2023-03-06T09:50:14.386Z,9.10
2023-03-06T09:55:21.680Z,13.00
2023-03-06T10:00:38.532Z,13.90
2023-03-06T10:06:09.724Z,13.40
2023-03-06T10:11:17.540Z,13.00
2023-03-06T10:16:24.496Z,13.10
2023-03-06T10:27:10.855Z,12.80
2023-03-06T10:32:49.314Z,11.30
2023-03-06T10:38:01.849Z,12.30
2023-03-06T10:43:14.077Z,10.50
2023-03-06T10:48:22.891Z,8.40
2023-03-06T10:53:30.039Z,10.10
2023-03-06T10:58:32.938Z,10.70
2023-03-06T11:03:37.052Z,10.00
2023-03-06T11:08:42.789Z,9.10
2023-03-06T11:13:57.041Z,7.20
2023-03-06T11:19:04.412Z,8.80
2023-03-06T11:24:19.518Z,10.20
2023-03-06T11:29:43.530Z,9.20
2023-03-06T11:35:12.907Z,11.50
2023-03-06T11:40:31.587Z,10.30
2023-03-06T11:45:44.167Z,9.90
2023-03-06T11:50:53.474Z,11.80
2023-03-06T11:56:23.282Z,10.50
2023-03-06T12:01:45.112Z,9.30
2023-03-06T12:06:55.148Z,8.20
2023-03-06T12:12:03.787Z,12.20
2023-03-06T12:17:27.378Z,10.90
2023-03-06T12:22:57.611Z,7.30
2023-03-06T12:28:19.895Z,11.70
2023-03-06T12:33:34.270Z,9.20
2023-03-06T12:38:58.031Z,7.30
2023-03-06T12:44:06.354Z,8.70
2023-03-06T12:49:31.918Z,8.80
2023-03-06T12:54:40.133Z,9.40
2023-03-06T12:59:47.388Z,6.30
2023-03-06T13:05:08.961Z,8.30
2023-03-06T13:10:25.833Z,9.00
2023-03-06T13:15:45.309Z,8.80
2023-03-06T13:20:55.452Z,8.20
2023-03-06T13:26:08.234Z,5.00
2023-03-06T13:31:27.689Z,5.90
2023-03-06T13:36:39.839Z,9.00
2023-03-06T13:42:00.593Z,10.00
2023-03-06T13:47:20.955Z,9.60
2023-03-06T13:53:11.715Z,9.40
2023-03-06T13:58:37.403Z,9.00
2023-03-06T14:03:48.863Z,11.70
2023-03-06T14:08:52.985Z,11.40
2023-03-06T14:13:59.198Z,11.50
2023-03-06T14:19:03.329Z,10.80
2023-03-06T14:24:07.226Z,10.30
2023-03-06T14:29:25.901Z,20.80
2023-03-06T14:34:33.258Z,10.90
2023-03-06T14:39:42.687Z,11.50
2023-03-06T14:44:47.535Z,12.40
2023-03-06T14:50:26.999Z,11.00
2023-03-06T14:55:32.486Z,12.80
2023-03-06T15:00:41.358Z,14.30
2023-03-06T15:05:47.996Z,14.00
2023-03-06T15:11:02.762Z,11.70
2023-03-06T15:16:28.998Z,12.40
2023-03-06T15:21:38.999Z,13.80
2023-03-06T15:26:40.997Z,14.30
2023-03-06T15:31:48.335Z,13.20
2023-03-06T15:36:56.476Z,11.10
2023-03-06T15:47:08.863Z,13.00
2023-03-06T15:52:13.663Z,13.40
2023-03-06T15:57:24.458Z,13.80
2023-03-06T16:02:30.352Z,14.30
2023-03-06T16:07:35.524Z,16.60
2023-03-06T16:12:47.440Z,14.90
2023-03-06T16:17:57.961Z,15.70
2023-03-06T16:23:01.375Z,15.00
2023-03-06T16:28:11.741Z,14.80
2023-03-06T16:33:18.438Z,13.40
2023-03-06T16:38:27.884Z,13.80
2023-03-06T16:43:40.784Z,13.70
2023-03-06T16:48:49.180Z,13.20
2023-03-06T16:53:55.795Z,13.40
2023-03-06T16:58:59.566Z,13.40
2023-03-06T17:04:03.545Z,14.70
2023-03-06T17:09:07.655Z,15.40
2023-03-06T17:14:12.070Z,15.80
2023-03-06T17:19:15.304Z,13.40
2023-03-06T17:24:20.222Z,13.00
2023-03-06T17:29:23.624Z,14.90
2023-03-06T17:34:27.870Z,11.90
2023-03-06T17:39:39.401Z,24.90
2023-03-06T17:44:42.213Z,38.30
2023-03-06T17:49:46.635Z,23.50
2023-03-06T17:54:50.418Z,14.10
2023-03-06T17:59:53.826Z,15.00
2023-03-06T18:04:57.803Z,16.30
2023-03-06T18:10:02.157Z,14.70
2023-03-06T18:15:05.805Z,16.40
2023-03-06T18:20:10.183Z,15.60
2023-03-06T18:25:13.995Z,15.70
2023-03-06T18:30:18.324Z,18.90
2023-03-06T18:35:21.598Z,18.30
2023-03-06T18:40:25.748Z,18.40
2023-03-06T18:45:28.608Z,17.40
2023-03-06T18:50:32.120Z,16.80
2023-03-06T18:55:34.903Z,16.70
2023-03-06T19:00:38.915Z,20.90
2023-03-06T19:05:43.800Z,19.20
2023-03-06T19:10:54.690Z,18.50
2023-03-06T19:15:58.806Z,19.40
2023-03-06T19:21:13.254Z,18.40
2023-03-06T19:26:18.742Z,8.30
2023-03-06T19:31:25.375Z,6.70
2023-03-06T19:36:34.152Z,6.10
2023-03-06T19:41:38.128Z,6.20
2023-03-06T19:46:41.673Z,6.30
2023-03-06T19:51:45.724Z,7.20
2023-03-06T19:56:49.959Z,8.00
2023-03-06T20:01:58.052Z,8.10
2023-03-06T20:07:02.040Z,7.20
2023-03-06T20:12:09.599Z,8.50
2023-03-06T20:17:12.416Z,12.50
2023-03-06T20:22:15.617Z,10.60
2023-03-06T20:27:19.175Z,11.40
2023-03-06T20:32:22.752Z,9.40
2023-03-06T20:37:42.763Z,12.80
2023-03-06T20:42:46.732Z,10.90
2023-03-06T20:47:50.336Z,11.60
2023-03-06T20:52:54.636Z,10.90
2023-03-06T20:58:00.837Z,8.60
2023-03-06T21:03:04.139Z,9.60
2023-03-06T21:08:08.004Z,9.90
2023-03-06T21:13:11.876Z,10.40
2023-03-06T21:18:15.961Z,11.60
2023-03-06T21:23:19.292Z,11.10
2023-03-06T21:28:22.321Z,10.10
2023-03-06T21:33:26.378Z,8.60
2023-03-06T21:38:29.590Z,9.40
2023-03-06T21:43:31.832Z,7.80
2023-03-06T21:48:36.127Z,9.10
2023-03-06T21:53:43.284Z,9.40
2023-03-06T21:58:46.850Z,8.70
2023-03-06T22:03:50.601Z,7.30
2023-03-06T22:08:55.763Z,8.80
2023-03-06T22:14:00.306Z,9.10
2023-03-06T22:19:04.000Z,10.10
2023-03-06T22:24:08.872Z,11.30
2023-03-06T22:29:11.197Z,10.00
2023-03-06T22:34:14.609Z,10.90
2023-03-06T22:39:19.378Z,10.50
2023-03-06T22:44:22.628Z,12.40
2023-03-06T22:49:25.871Z,13.10
2023-03-06T22:54:29.675Z,13.90
2023-03-06T22:59:32.864Z,12.50
2023-03-06T23:04:36.654Z,13.90
2023-03-06T23:09:40.053Z,12.10
2023-03-06T23:14:49.966Z,12.80
2023-03-06T23:19:54.287Z,13.50
2023-03-06T23:24:56.289Z,13.90
2023-03-06T23:29:59.371Z,15.20
2023-03-06T23:35:01.852Z,15.30
2023-03-06T23:40:07.968Z,15.50
2023-03-06T23:45:11.435Z,13.60
2023-03-06T23:50:15.804Z,15.80
2023-03-06T23:55:18.124Z,13.10
